• Join FlightAware (Why Join?)
  • Login
  • US Flag 
09:51PM EDT


 

Airport Tracker/Info


-or-


 

Live Flight TrackerFlight Track Log ✈ FSR103 ✈ 05-Jun-2014 ✈ KMDW - KCMI

Flight Track Log - Related Links

Times and Time Zones

All times are in EDT time to prevent confusion due to time zone crossing. See the FSR103 flight status page for this flight to view local times or setup timezone preferences in your user account.

Time Position Orientation Groundspeed Altitude Reporting Facility
EDT Latitude Longitude Course Direction KTS MPH feet Rate Location/Type
05:59PM 41.8000 -87.7333 136° Southeast 178 205 1,800  Level Chicago TRACON
06:00PM 41.7561 -87.6756 136° Southeast 249 287 3,800 2,160 Climbing Chicago Center
06:01PM 41.6883 -87.7156 204° Southwest 272 313 6,000 2,220 Climbing Chicago Center
06:02PM 41.6328 -87.7769 220° Southwest 276 318 8,400 1,860 Climbing Chicago Center
06:03PM 41.5658 -87.8508 220° Southwest 284 327 9,900 720 Climbing Chicago Center
06:04PM 41.4833 -87.9439 220° Southwest 365 420 10,000  Climbing Chicago Center
06:06PM 41.2956 -88.0667 206° Southwest 371 427 10,000  Level Chicago Center
06:07PM 41.1961 -88.0911 190° South 365 420 10,000  Level Chicago Center
06:08PM 41.0861 -88.1033 185° South 368 423 10,000  Level Chicago Center
06:09PM 40.9844 -88.1153 185° South 368 423 10,000  Level Chicago Center
06:10PM 40.8744 -88.1289 185° South 368 423 10,000  Level Chicago Center
06:11PM 40.7725 -88.1403 185° South 369 425 10,000  Level Chicago Center
06:12PM 40.6653 -88.1542 186° South 365 420 10,000  Level Chicago Center
06:13PM 40.5633 -88.1661 185° South 365 420 10,000  Level Chicago Center
06:14PM 40.4625 -88.1897 190° South 366 421 10,000 -240 Level Chicago Center
06:15PM 40.3722 -88.2111 190° South 325 374 9,600 -960 Descending Chicago Center
06:16PM 40.3061 -88.2503 204° Southwest 266 306 8,100 -1,680 Descending Chicago Center
06:17PM 40.2433 -88.2906 206° Southwest 257 296 6,100 -1,920 Descending Chicago Center
06:18PM 40.1808 -88.3331 207° Southwest 243 280 4,200 -1,380 Descending Chicago Center
06:19PM 40.1189 -88.3594 198° South 241 277 3,300 -900 Descending Chicago Center
06:21PM 40.0531 -88.2923 180° South  Level Estimated
06:28PM 40.0388 -88.2778 180° South  Level Estimated
06:29PM 40.0388 -88.2778 180° South  Level Estimated
06:30PM 40.0388 -88.2778 180° South  Level Estimated